Time;durP1;ratioP1;P1;durP2;ratioP2;P2;SDS_P1;SDS_P2;PMS_P1;PMS_P2;Temp;Humidity;BMP_temperature;BMP_pressure;BME280_temperature;BME280_humidity;BME280_pressure;Samples;Min_cycle;Max_cycle;Signal;HPM_P1;HPM_P2
2023/05/31 00:01:07;;;;;;;2.33;0.70;;;12.30;99.90;;;;;;5033320;28;20095;-57
2023/05/31 00:03:35;;;;;;;1.20;0.55;;;12.20;99.90;;;;;;5033095;28;20045;-55
2023/05/31 00:06:02;;;;;;;1.95;0.43;;;12.20;99.90;;;;;;5033542;28;20554;-52
2023/05/31 00:08:29;;;;;;;1.95;0.60;;;12.10;99.90;;;;;;5033754;28;20124;-58
2023/05/31 00:10:56;;;;;;;2.70;0.70;;;12.00;99.90;;;;;;5033359;28;20479;-56
2023/05/31 00:13:22;;;;;;;1.60;0.52;;;12.00;99.90;;;;;;5033245;28;20041;-56
2023/05/31 00:15:49;;;;;;;2.53;0.70;;;11.90;99.90;;;;;;5033451;28;20041;-58
2023/05/31 00:18:16;;;;;;;2.10;0.60;;;11.90;99.90;;;;;;5033485;28;20103;-56
2023/05/31 00:20:43;;;;;;;1.52;0.60;;;11.90;99.90;;;;;;5031991;28;20447;-56
2023/05/31 00:23:11;;;;;;;2.05;0.63;;;11.90;99.90;;;;;;5033084;28;20050;-55
2023/05/31 00:25:38;;;;;;;3.60;0.73;;;12.00;99.90;;;;;;5034660;28;20045;-57
2023/05/31 00:28:05;;;;;;;4.13;1.00;;;12.00;99.90;;;;;;5036742;28;20048;-57
2023/05/31 00:30:32;;;;;;;1.88;0.70;;;12.00;99.90;;;;;;5037052;28;20116;-56
2023/05/31 00:32:59;;;;;;;3.17;0.80;;;12.00;99.90;;;;;;5036845;28;20493;-56
2023/05/31 00:35:26;;;;;;;3.60;0.90;;;11.90;99.90;;;;;;5035348;28;20045;-57
2023/05/31 00:37:52;;;;;;;4.13;1.10;;;11.80;99.90;;;;;;5036458;28;20048;-57
2023/05/31 00:40:19;;;;;;;1.88;0.80;;;11.80;99.90;;;;;;5036510;28;20072;-56
2023/05/31 00:42:46;;;;;;;1.50;0.90;;;11.80;99.90;;;;;;5036546;28;20562;-57
2023/05/31 00:45:13;;;;;;;3.88;1.15;;;11.70;99.90;;;;;;5019102;28;20099;-58
2023/05/31 00:47:40;;;;;;;2.05;0.95;;;11.70;99.90;;;;;;5035027;28;20141;-55
2023/05/31 00:50:07;;;;;;;3.08;1.10;;;11.80;99.90;;;;;;5036547;28;20041;-56
2023/05/31 00:52:34;;;;;;;1.95;0.93;;;11.80;99.90;;;;;;5036245;28;20448;-53
2023/05/31 00:55:01;;;;;;;4.75;1.40;;;11.80;99.90;;;;;;5036505;28;20037;-56
2023/05/31 00:57:28;;;;;;;2.72;1.30;;;11.70;99.90;;;;;;5036379;28;20120;-56
2023/05/31 00:59:55;;;;;;;3.13;1.25;;;11.70;99.90;;;;;;5036380;28;20075;-53
2023/05/31 01:02:22;;;;;;;4.13;1.33;;;11.70;99.90;;;;;;5036479;28;20091;-57
2023/05/31 01:04:49;;;;;;;6.15;1.35;;;11.60;99.90;;;;;;5036383;28;20045;-56
2023/05/31 01:07:16;;;;;;;2.88;1.02;;;11.60;99.90;;;;;;5036395;28;20048;-53
2023/05/31 01:09:43;;;;;;;2.45;1.00;;;11.60;99.90;;;;;;5035130;28;20053;-58
2023/05/31 01:12:10;;;;;;;3.22;1.15;;;11.50;99.90;;;;;;5034749;28;20045;-55
2023/05/31 01:14:37;;;;;;;4.78;1.30;;;11.40;99.90;;;;;;5036355;28;20045;-56
2023/05/31 01:17:03;;;;;;;3.03;1.23;;;11.40;99.90;;;;;;5035864;28;20469;-57
2023/05/31 01:19:32;;;;;;;2.28;1.00;;;11.40;99.90;;;;;;5034918;28;20128;-56
2023/05/31 01:21:59;;;;;;;3.85;1.23;;;11.40;99.90;;;;;;5035763;28;20067;-58
2023/05/31 01:24:26;;;;;;;3.50;1.23;;;11.30;99.90;;;;;;5034499;28;20115;-57
2023/05/31 01:26:55;;;;;;;3.30;1.38;;;11.30;99.90;;;;;;5035837;28;20041;-55
2023/05/31 01:29:23;;;;;;;2.92;1.20;;;11.30;99.90;;;;;;5035569;28;20578;-56
2023/05/31 01:31:51;;;;;;;2.50;1.38;;;11.30;99.90;;;;;;5035326;28;20056;-57
2023/05/31 01:34:19;;;;;;;2.50;1.30;;;11.20;99.90;;;;;;5035692;28;20239;-58
2023/05/31 01:36:46;;;;;;;3.63;1.10;;;11.20;99.90;;;;;;5033689;28;20417;-56
2023/05/31 01:39:12;;;;;;;2.03;1.10;;;11.20;99.90;;;;;;5034395;28;20107;-56
2023/05/31 01:41:39;;;;;;;2.28;1.27;;;11.10;99.90;;;;;;5034284;28;20049;-57
2023/05/31 01:44:06;;;;;;;3.13;1.30;;;11.10;99.90;;;;;;5035739;28;20435;-57
2023/05/31 01:46:33;;;;;;;2.95;1.45;;;11.10;99.90;;;;;;5034187;28;20103;-56
2023/05/31 01:49:00;;;;;;;2.00;1.10;;;11.10;99.90;;;;;;5034290;28;20049;-54
2023/05/31 01:51:27;;;;;;;2.60;1.27;;;11.10;99.90;;;;;;5034543;28;20042;-54
2023/05/31 01:53:54;;;;;;;3.35;1.42;;;11.10;99.90;;;;;;5033956;28;20041;-58
2023/05/31 01:56:21;;;;;;;1.73;1.10;;;11.10;99.90;;;;;;5034286;28;20128;-56
2023/05/31 01:58:48;;;;;;;2.35;1.00;;;11.10;99.90;;;;;;5035373;28;20534;-57
2023/05/31 02:01:19;;;;;;;3.28;1.30;;;11.10;99.90;;;;;;5034390;28;20049;-52
2023/05/31 02:03:46;;;;;;;3.13;1.20;;;11.10;99.90;;;;;;5033582;28;20498;-56
2023/05/31 02:06:13;;;;;;;3.47;1.42;;;11.10;99.90;;;;;;5034874;28;20494;-58
2023/05/31 02:08:40;;;;;;;3.40;1.40;;;11.10;99.90;;;;;;5035137;28;20091;-56
2023/05/31 02:11:07;;;;;;;2.88;1.40;;;11.10;99.90;;;;;;5033983;28;20042;-57
2023/05/31 02:13:35;;;;;;;3.30;1.58;;;11.10;99.90;;;;;;5033994;28;20045;-58
2023/05/31 02:16:05;;;;;;;3.40;1.50;;;11.00;99.90;;;;;;5033472;28;20128;-57
2023/05/31 02:18:32;;;;;;;4.30;1.33;;;11.00;99.90;;;;;;5034988;28;20079;-57
2023/05/31 02:20:59;;;;;;;2.88;1.50;;;11.10;99.90;;;;;;5033865;28;20049;-54
2023/05/31 02:23:26;;;;;;;4.40;1.70;;;11.10;99.90;;;;;;5033287;28;20103;-55
2023/05/31 02:25:53;;;;;;;2.97;1.52;;;11.10;99.90;;;;;;5033325;28;20050;-58
2023/05/31 02:28:20;;;;;;;3.58;1.45;;;11.10;99.90;;;;;;5034302;28;20127;-52
2023/05/31 02:30:50;;;;;;;2.50;1.27;;;11.10;99.90;;;;;;5034455;28;20484;-58
2023/05/31 02:33:16;;;;;;;7.88;1.50;;;11.10;99.90;;;;;;5034449;28;20033;-59
2023/05/31 02:35:43;;;;;;;4.22;1.40;;;11.10;99.90;;;;;;5034128;28;20045;-57
2023/05/31 02:38:10;;;;;;;5.43;1.40;;;11.10;99.90;;;;;;5033419;28;20045;-58
2023/05/31 02:40:37;;;;;;;3.10;1.10;;;11.20;99.90;;;;;;5034618;28;20116;-55
2023/05/31 02:43:04;;;;;;;3.58;1.42;;;11.10;99.90;;;;;;5034772;28;20041;-52
2023/05/31 02:45:31;;;;;;;5.30;1.45;;;11.10;99.90;;;;;;5034162;28;20496;-56
2023/05/31 02:48:01;;;;;;;4.22;1.30;;;11.10;99.90;;;;;;5032880;28;20052;-50
2023/05/31 02:50:29;;;;;;;3.95;1.30;;;11.10;99.90;;;;;;5032545;28;20041;-53
2023/05/31 02:52:57;;;;;;;2.72;1.10;;;11.20;99.90;;;;;;5032930;28;20370;-50
2023/05/31 02:55:56;;;;;;;3.60;1.40;;;11.10;99.90;;;;;;5029869;28;20049;-54
2023/05/31 02:58:22;;;;;;;4.35;1.50;;;11.10;99.90;;;;;;5034563;28;20053;-52
2023/05/31 03:01:09;;;;;;;4.28;1.30;;;11.10;99.90;;;;;;5034242;28;20128;-55
2023/05/31 03:03:44;;;;;;;;;;;11.10;99.90;;;;;;5033445;28;20207;-58
2023/05/31 03:06:20;;;;;;;1.85;1.20;;;11.10;99.90;;;;;;5032736;28;19921;-56
2023/05/31 03:08:47;;;;;;;4.40;1.55;;;11.10;99.90;;;;;;5034004;28;20040;-62
2023/05/31 03:11:14;;;;;;;3.83;1.20;;;11.10;99.90;;;;;;5016543;28;20088;-58
2023/05/31 03:13:41;;;;;;;3.13;1.10;;;11.10;99.90;;;;;;5032766;28;20049;-58
2023/05/31 03:16:08;;;;;;;3.03;1.17;;;11.20;99.90;;;;;;5032495;28;20490;-56
2023/05/31 03:18:35;;;;;;;3.25;1.00;;;11.10;99.90;;;;;;5032581;28;20114;-57
2023/05/31 03:21:03;;;;;;;1.85;1.00;;;11.20;99.90;;;;;;5032567;28;20045;-56
2023/05/31 03:23:30;;;;;;;3.70;1.10;;;11.20;99.90;;;;;;5032295;28;20068;-58
2023/05/31 03:25:57;;;;;;;4.10;1.13;;;11.10;99.90;;;;;;5032253;28;20045;-58
2023/05/31 03:28:24;;;;;;;3.42;1.08;;;11.10;99.90;;;;;;5016116;28;20135;-55
2023/05/31 03:30:51;;;;;;;2.75;1.08;;;11.10;99.90;;;;;;5032286;28;20080;-54
2023/05/31 03:33:18;;;;;;;2.00;1.00;;;11.10;99.90;;;;;;5032638;28;20051;-59
2023/05/31 03:35:46;;;;;;;1.85;1.15;;;11.10;99.90;;;;;;5032493;28;20124;-55
2023/05/31 03:38:13;;;;;;;5.25;1.10;;;11.20;99.90;;;;;;5032341;28;20447;-57
2023/05/31 03:40:40;;;;;;;1.75;0.88;;;11.10;99.90;;;;;;5033314;28;20042;-53
2023/05/31 03:43:06;;;;;;;2.65;0.90;;;11.20;99.90;;;;;;5033758;28;20056;-54
2023/05/31 03:45:33;;;;;;;2.95;0.80;;;11.10;99.90;;;;;;5032258;28;20040;-56
2023/05/31 03:48:00;;;;;;;2.47;0.80;;;11.10;99.90;;;;;;5032487;28;20055;-56
2023/05/31 03:50:27;;;;;;;3.05;0.90;;;11.10;99.90;;;;;;5032499;28;20041;-56
2023/05/31 03:52:54;;;;;;;3.35;1.17;;;11.00;99.90;;;;;;5032390;28;20068;-56
2023/05/31 03:55:25;;;;;;;2.17;0.98;;;11.00;99.90;;;;;;5032210;28;20072;-57
2023/05/31 03:57:51;;;;;;;2.53;1.00;;;11.00;99.90;;;;;;5033516;28;20116;-58
2023/05/31 04:00:19;;;;;;;2.28;1.00;;;11.00;99.90;;;;;;5033540;28;20492;-58
2023/05/31 04:02:49;;;;;;;1.95;1.00;;;11.10;99.90;;;;;;5036498;28;20053;-56
2023/05/31 04:05:32;;;;;;;2.10;1.08;;;11.10;99.90;;;;;;5036372;28;20061;-56
2023/05/31 04:08:00;;;;;;;1.55;0.80;;;11.10;99.90;;;;;;5035970;28;20108;-55
2023/05/31 04:10:30;;;;;;;2.08;1.20;;;11.10;99.90;;;;;;5036228;28;20128;-53
2023/05/31 04:12:56;;;;;;;1.67;0.90;;;11.00;99.90;;;;;;5037472;28;20041;-55
2023/05/31 04:15:23;;;;;;;2.25;0.90;;;11.00;99.90;;;;;;5035827;28;20069;-53
2023/05/31 04:17:52;;;;;;;2.75;0.90;;;11.00;99.90;;;;;;5035943;28;20048;-56
2023/05/31 04:20:19;;;;;;;2.10;0.98;;;11.00;99.90;;;;;;5036090;28;20136;-56
2023/05/31 04:22:48;;;;;;;2.35;1.10;;;11.00;99.90;;;;;;5035897;28;20053;-55
2023/05/31 04:25:17;;;;;;;3.58;1.30;;;11.00;99.90;;;;;;5035793;28;20045;-57
2023/05/31 04:27:44;;;;;;;3.97;1.42;;;11.00;99.90;;;;;;5035760;28;20045;-54
2023/05/31 04:30:12;;;;;;;2.20;1.40;;;11.00;99.90;;;;;;5035810;28;20050;-57
2023/05/31 04:32:40;;;;;;;3.10;1.52;;;11.00;99.90;;;;;;5036950;28;20100;-57
2023/05/31 04:35:08;;;;;;;3.13;1.40;;;10.90;99.90;;;;;;5035940;28;20041;-56
2023/05/31 04:37:39;;;;;;;1.90;1.27;;;10.90;99.90;;;;;;5035604;28;20485;-55
2023/05/31 04:40:09;;;;;;;3.42;1.50;;;10.90;99.90;;;;;;5035324;28;20053;-56
2023/05/31 04:42:36;;;;;;;4.68;1.63;;;10.90;99.90;;;;;;5035478;28;20049;-56
2023/05/31 04:45:05;;;;;;;3.97;1.65;;;10.90;99.90;;;;;;5019743;28;20045;-55
2023/05/31 04:47:37;;;;;;;2.97;1.70;;;11.00;99.90;;;;;;5035563;28;20053;-56
2023/05/31 04:50:04;;;;;;;2.35;1.50;;;11.00;99.90;;;;;;5035279;28;20073;-55
2023/05/31 04:52:33;;;;;;;4.57;1.73;;;11.00;99.90;;;;;;5035207;28;20072;-57
2023/05/31 04:55:00;;;;;;;2.08;1.40;;;11.00;99.90;;;;;;5035006;28;20077;-57
2023/05/31 04:57:27;;;;;;;2.25;1.50;;;10.90;99.90;;;;;;5034986;28;20041;-54
2023/05/31 04:59:59;;;;;;;3.10;1.27;;;10.90;99.90;;;;;;5034897;28;20646;-57
2023/05/31 05:02:26;;;;;;;2.72;1.50;;;11.00;99.90;;;;;;5034914;28;20049;-56
2023/05/31 05:04:54;;;;;;;1.80;1.10;;;10.90;99.90;;;;;;5034868;28;20049;-56
2023/05/31 05:07:21;;;;;;;1.85;1.30;;;11.00;99.90;;;;;;5018776;28;20046;-56
2023/05/31 05:09:48;;;;;;;2.45;1.50;;;10.90;99.90;;;;;;5034821;28;20042;-56
2023/05/31 05:12:15;;;;;;;3.70;1.35;;;10.90;99.90;;;;;;5034231;28;20045;-57
2023/05/31 05:14:45;;;;;;;2.55;1.70;;;11.00;99.90;;;;;;5036036;28;20120;-57
2023/05/31 05:17:13;;;;;;;2.35;1.50;;;11.00;99.90;;;;;;5034743;28;20413;-58
2023/05/31 05:19:40;;;;;;;3.55;1.55;;;11.00;99.90;;;;;;5036263;28;20048;-53
2023/05/31 05:22:10;;;;;;;3.15;1.42;;;11.10;99.90;;;;;;5034307;28;20081;-58
2023/05/31 05:24:38;;;;;;;2.97;1.75;;;11.10;99.90;;;;;;5034614;28;20049;-54
2023/05/31 05:27:06;;;;;;;2.28;1.58;;;11.20;99.90;;;;;;5034323;28;20041;-55
2023/05/31 05:29:33;;;;;;;2.80;1.70;;;11.20;99.90;;;;;;5035074;28;20049;-57
2023/05/31 05:31:59;;;;;;;3.85;1.98;;;11.20;99.90;;;;;;5034383;28;20069;-58
2023/05/31 05:34:26;;;;;;;3.53;1.92;;;11.20;99.90;;;;;;5034994;28;20053;-55
2023/05/31 05:36:53;;;;;;;3.47;2.30;;;11.10;99.90;;;;;;5034871;28;20041;-55
2023/05/31 05:39:21;;;;;;;3.05;2.20;;;11.20;99.90;;;;;;5036087;28;20072;-57
2023/05/31 05:41:47;;;;;;;3.10;1.88;;;11.30;99.90;;;;;;5035447;28;20388;-55
2023/05/31 05:44:15;;;;;;;2.40;1.75;;;11.30;99.90;;;;;;5034712;28;20049;-55
2023/05/31 05:46:41;;;;;;;4.40;2.13;;;11.40;99.90;;;;;;5033956;28;20041;-58
2023/05/31 05:49:08;;;;;;;2.80;2.03;;;11.30;99.90;;;;;;5017801;28;20048;-52
2023/05/31 05:51:36;;;;;;;3.65;2.17;;;11.30;99.90;;;;;;5034658;28;20050;-56
2023/05/31 05:54:07;;;;;;;3.78;1.98;;;11.30;99.90;;;;;;5034658;28;20049;-55
2023/05/31 05:56:35;;;;;;;4.72;2.20;;;11.40;99.90;;;;;;5035284;28;20507;-56
2023/05/31 05:59:04;;;;;;;3.50;2.17;;;11.50;99.90;;;;;;5034312;28;20033;-54
2023/05/31 06:01:57;;;;;;;4.25;2.05;;;11.50;99.90;;;;;;5033625;28;20071;-56
2023/05/31 06:04:25;;;;;;;6.10;2.40;;;11.60;99.90;;;;;;5034207;28;20053;-55
2023/05/31 06:06:52;;;;;;;4.40;2.22;;;11.60;99.90;;;;;;5035119;28;20037;-55
2023/05/31 06:09:18;;;;;;;6.35;2.53;;;11.60;99.90;;;;;;5035463;28;20132;-51
2023/05/31 06:11:45;;;;;;;3.78;2.00;;;11.60;99.90;;;;;;5033623;28;20460;-57
2023/05/31 06:14:13;;;;;;;2.63;1.90;;;11.60;99.90;;;;;;5033582;28;20504;-56
2023/05/31 06:16:44;;;;;;;3.47;1.80;;;11.70;99.90;;;;;;5033433;28;20037;-57
2023/05/31 06:19:12;;;;;;;3.30;2.00;;;11.60;99.90;;;;;;5033889;28;20496;-57
2023/05/31 06:21:40;;;;;;;4.43;1.90;;;11.70;99.90;;;;;;5033323;28;20037;-57
2023/05/31 06:24:07;;;;;;;3.70;1.90;;;11.60;99.90;;;;;;5033404;28;20138;-57
2023/05/31 06:26:35;;;;;;;2.97;1.90;;;11.70;99.90;;;;;;5025963;28;20034;-56
2023/05/31 06:29:04;;;;;;;4.15;2.10;;;11.80;99.90;;;;;;5020683;28;20045;-56
2023/05/31 06:32:06;;;;;;;4.32;2.30;;;11.90;99.90;;;;;;5027756;28;20124;-57
2023/05/31 06:34:36;;;;;;;3.50;1.98;;;11.90;99.90;;;;;;5023013;28;20033;-56
2023/05/31 06:37:03;;;;;;;3.10;1.90;;;11.90;99.90;;;;;;5024071;28;20045;-58
2023/05/31 06:39:31;;;;;;;2.60;1.88;;;12.00;99.90;;;;;;5023471;28;20038;-57
2023/05/31 06:41:59;;;;;;;5.32;2.45;;;12.10;99.90;;;;;;5031791;28;20423;-53
2023/05/31 06:44:52;;;;;;;3.47;2.10;;;12.20;99.90;;;;;;5034736;28;20057;-57
2023/05/31 06:47:41;;;;;;;3.90;1.70;;;12.30;99.90;;;;;;5034014;28;20060;-57
2023/05/31 06:50:14;;;;;;;2.65;1.75;;;12.40;99.90;;;;;;5034131;28;20096;-57
2023/05/31 06:52:44;;;;;;;3.00;1.92;;;12.40;99.90;;;;;;5034222;28;20129;-54
2023/05/31 06:55:40;;;;;;;3.88;1.77;;;12.50;99.90;;;;;;5029620;28;20045;-56
2023/05/31 06:58:10;;;;;;;3.42;1.90;;;12.50;99.90;;;;;;5033080;28;20132;-61
2023/05/31 07:00:39;;;;;;;5.32;1.90;;;12.50;99.90;;;;;;5033124;28;20041;-57
2023/05/31 07:03:06;;;;;;;2.47;1.70;;;12.50;99.90;;;;;;5033896;28;20546;-56
2023/05/31 07:05:35;;;;;;;6.13;2.22;;;12.60;99.90;;;;;;5032771;28;20049;-51
2023/05/31 07:08:02;;;;;;;5.68;1.98;;;12.70;99.90;;;;;;5032849;28;20486;-56
2023/05/31 07:10:33;;;;;;;3.40;1.85;;;12.70;99.90;;;;;;5032728;28;20037;-56
2023/05/31 07:13:00;;;;;;;5.40;1.60;;;12.70;99.90;;;;;;5032616;28;20189;-55
2023/05/31 07:15:27;;;;;;;3.63;1.80;;;12.80;99.90;;;;;;5032222;28;20164;-53
2023/05/31 07:17:54;;;;;;;3.72;1.90;;;12.90;99.90;;;;;;5033544;28;20113;-54
2023/05/31 07:20:22;;;;;;;3.03;1.67;;;13.00;99.90;;;;;;5032497;28;20087;-57
2023/05/31 07:22:50;;;;;;;5.40;2.20;;;13.00;99.90;;;;;;5033331;28;20050;-55
2023/05/31 07:25:17;;;;;;;5.45;2.42;;;13.10;99.90;;;;;;5032899;28;20419;-56
2023/05/31 07:27:44;;;;;;;4.40;2.33;;;13.10;99.90;;;;;;5034061;28;20045;-56
2023/05/31 07:30:11;;;;;;;4.78;2.15;;;13.20;99.90;;;;;;5033491;28;20072;-56
2023/05/31 07:32:38;;;;;;;4.82;2.47;;;13.50;99.90;;;;;;5033601;28;20065;-56
2023/05/31 07:35:06;;;;;;;5.97;2.65;;;13.60;99.90;;;;;;5033205;28;20048;-53
2023/05/31 07:37:33;;;;;;;4.53;2.50;;;13.60;99.90;;;;;;5040733;28;20063;-55
2023/05/31 07:39:59;;;;;;;4.57;2.85;;;13.60;99.90;;;;;;5032872;28;20046;-57
2023/05/31 07:42:28;;;;;;;4.15;2.65;;;13.60;99.90;;;;;;5032772;28;20056;-57
2023/05/31 07:44:55;;;;;;;4.13;2.92;;;13.60;99.90;;;;;;5034567;28;20042;-58
2023/05/31 07:47:22;;;;;;;7.40;3.20;;;13.70;99.90;;;;;;5031277;28;20544;-56
2023/05/31 07:49:51;;;;;;;6.20;2.65;;;13.80;99.90;;;;;;5032826;28;20048;-56
2023/05/31 07:52:21;;;;;;;5.13;3.25;;;13.90;99.90;;;;;;5032748;28;20057;-55
2023/05/31 07:54:49;;;;;;;4.63;3.33;;;14.00;99.90;;;;;;5032557;28;20423;-54
2023/05/31 07:57:15;;;;;;;6.50;3.60;;;13.90;99.90;;;;;;5033921;28;20041;-56
2023/05/31 07:59:42;;;;;;;7.35;3.58;;;13.90;99.90;;;;;;5032391;28;20088;-57
2023/05/31 08:02:09;;;;;;;6.32;3.45;;;13.80;99.90;;;;;;5032800;28;20443;-55
2023/05/31 08:04:36;;;;;;;6.20;3.00;;;13.90;99.90;;;;;;5032658;28;20038;-54
2023/05/31 08:07:03;;;;;;;4.55;3.35;;;13.90;99.90;;;;;;5032667;28;20128;-55
2023/05/31 08:09:30;;;;;;;8.50;3.63;;;13.90;99.90;;;;;;5031220;28;20049;-57
2023/05/31 08:11:57;;;;;;;6.25;3.50;;;13.90;99.90;;;;;;5032769;28;20249;-58
2023/05/31 08:14:24;;;;;;;5.45;3.75;;;13.90;99.90;;;;;;5032722;28;20409;-56
2023/05/31 08:16:50;;;;;;;5.68;3.75;;;13.90;99.90;;;;;;5032482;28;20045;-57
2023/05/31 08:19:17;;;;;;;4.70;3.45;;;13.90;99.90;;;;;;5032584;28;20060;-57
2023/05/31 08:21:45;;;;;;;7.05;3.72;;;14.00;99.90;;;;;;5032358;28;20041;-57
2023/05/31 08:24:12;;;;;;;6.38;3.53;;;14.10;99.90;;;;;;5032464;28;20506;-53
2023/05/31 08:26:38;;;;;;;6.97;4.07;;;14.10;99.90;;;;;;5032092;28;20037;-57
2023/05/31 08:29:06;;;;;;;7.95;3.85;;;14.10;99.90;;;;;;5038693;28;20045;-57
2023/05/31 08:31:34;;;;;;;7.65;4.50;;;14.20;99.90;;;;;;5032312;28;20033;-56
2023/05/31 08:34:01;;;;;;;7.30;4.38;;;14.20;99.90;;;;;;5032356;28;20044;-58
2023/05/31 08:36:29;;;;;;;7.80;4.43;;;14.20;99.90;;;;;;5036875;28;20052;-58
2023/05/31 08:38:56;;;;;;;9.68;4.28;;;14.30;99.90;;;;;;5031147;28;20045;-53
2023/05/31 08:41:23;;;;;;;6.35;4.50;;;14.20;99.90;;;;;;5030934;28;20413;-56
2023/05/31 08:43:50;;;;;;;10.50;4.80;;;14.30;99.90;;;;;;5032196;28;20049;-54
2023/05/31 08:46:17;;;;;;;7.55;4.45;;;14.30;99.90;;;;;;5033140;28;20116;-55
2023/05/31 08:48:43;;;;;;;8.45;4.32;;;14.30;99.90;;;;;;5035891;28;20033;-57
2023/05/31 08:51:10;;;;;;;8.30;5.10;;;14.50;99.90;;;;;;5035674;28;20539;-56
2023/05/31 08:53:37;;;;;;;8.32;5.13;;;14.60;99.90;;;;;;5035868;28;20044;-55
2023/05/31 08:56:04;;;;;;;8.10;6.18;;;14.60;99.90;;;;;;5035699;28;20041;-53
2023/05/31 08:58:32;;;;;;;7.47;6.03;;;14.70;99.90;;;;;;5035007;28;20042;-57
2023/05/31 09:00:58;;;;;;;7.97;5.93;;;14.70;99.90;;;;;;5035774;28;20138;-53
2023/05/31 09:03:26;;;;;;;8.73;5.78;;;14.80;99.90;;;;;;5035610;28;20041;-55
2023/05/31 09:05:53;;;;;;;9.60;6.20;;;14.80;99.90;;;;;;5037021;28;20425;-56
2023/05/31 09:08:20;;;;;;;10.10;7.03;;;14.90;99.90;;;;;;5035423;28;20128;-56
2023/05/31 09:10:47;;;;;;;7.60;5.82;;;14.90;99.90;;;;;;5035559;28;20041;-53
2023/05/31 09:13:14;;;;;;;8.77;6.20;;;14.90;99.90;;;;;;5035513;28;20033;-55
2023/05/31 09:15:40;;;;;;;9.88;6.35;;;14.90;99.90;;;;;;5035298;28;20034;-53
2023/05/31 09:18:07;;;;;;;10.43;6.13;;;15.00;99.90;;;;;;5035160;28;20065;-58
2023/05/31 09:20:34;;;;;;;9.25;5.88;;;15.00;99.90;;;;;;5035583;28;20099;-54
2023/05/31 09:23:01;;;;;;;7.60;6.43;;;15.00;99.90;;;;;;5035107;28;20055;-57
2023/05/31 09:25:27;;;;;;;7.78;6.20;;;15.00;99.90;;;;;;5034789;28;20041;-55
2023/05/31 09:27:54;;;;;;;9.90;6.57;;;14.90;99.90;;;;;;5034929;28;20412;-57
2023/05/31 09:30:21;;;;;;;7.82;6.10;;;14.90;99.90;;;;;;5033496;28;20045;-57
2023/05/31 09:32:48;;;;;;;10.55;6.15;;;15.00;99.90;;;;;;5034851;28;20045;-56
2023/05/31 09:35:14;;;;;;;10.05;6.47;;;15.00;99.90;;;;;;5039499;28;20045;-56
2023/05/31 09:37:41;;;;;;;9.02;7.07;;;15.00;99.90;;;;;;5035095;28;20037;-57
2023/05/31 09:40:08;;;;;;;9.85;7.18;;;14.90;99.90;;;;;;5035289;28;20048;-57
2023/05/31 09:42:35;;;;;;;10.00;6.57;;;14.90;99.90;;;;;;5035144;28;20129;-57
2023/05/31 09:45:01;;;;;;;9.85;6.63;;;14.90;99.90;;;;;;5034714;28;20041;-54
2023/05/31 09:47:28;;;;;;;7.72;5.85;;;15.10;99.90;;;;;;5033055;28;20459;-54
2023/05/31 09:49:55;;;;;;;10.05;6.18;;;15.30;99.90;;;;;;5022544;28;20099;-57
2023/05/31 09:52:22;;;;;;;8.35;5.95;;;15.30;99.90;;;;;;5033591;28;20038;-56
2023/05/31 09:54:49;;;;;;;10.60;6.68;;;15.40;99.90;;;;;;5034795;28;20037;-53
2023/05/31 09:57:17;;;;;;;11.20;6.93;;;15.50;99.90;;;;;;5033298;28;20048;-55
2023/05/31 09:59:43;;;;;;;9.07;6.10;;;15.60;99.90;;;;;;5034044;28;20041;-58
2023/05/31 10:02:13;;;;;;;10.65;5.80;;;15.70;99.90;;;;;;5034412;28;20069;-57
2023/05/31 10:04:39;;;;;;;8.82;5.90;;;15.70;99.90;;;;;;5034430;28;20124;-57
2023/05/31 10:07:06;;;;;;;8.98;6.00;;;15.60;99.90;;;;;;5034366;28;20136;-56
2023/05/31 10:09:33;;;;;;;9.02;6.47;;;15.70;99.90;;;;;;5034235;28;20053;-51
2023/05/31 10:12:00;;;;;;;10.30;6.15;;;15.60;99.90;;;;;;5033688;28;20133;-55
2023/05/31 10:14:27;;;;;;;10.38;6.85;;;15.50;99.90;;;;;;5033853;28;20048;-57
2023/05/31 10:16:53;;;;;;;11.10;6.35;;;15.60;99.90;;;;;;5034102;28;20045;-58
2023/05/31 10:19:21;;;;;;;9.88;6.28;;;15.60;99.90;;;;;;5034068;28;20099;-55
2023/05/31 10:21:48;;;;;;;9.20;6.75;;;15.60;99.90;;;;;;5034367;28;20068;-56
2023/05/31 10:24:15;;;;;;;7.57;5.38;;;15.70;99.90;;;;;;5034437;28;20049;-55
2023/05/31 10:26:42;;;;;;;8.27;5.72;;;15.90;99.90;;;;;;5034267;28;20531;-52
2023/05/31 10:29:08;;;;;;;9.65;6.47;;;15.90;99.90;;;;;;5034276;28;20391;-56
2023/05/31 10:31:35;;;;;;;8.65;5.45;;;16.00;99.90;;;;;;5033510;28;20042;-58
2023/05/31 10:34:03;;;;;;;10.48;6.53;;;16.20;99.90;;;;;;5033751;28;20127;-56
2023/05/31 10:36:30;;;;;;;9.38;6.05;;;16.20;99.90;;;;;;5035047;28;20099;-57
2023/05/31 10:38:57;;;;;;;7.57;5.82;;;16.40;99.90;;;;;;5033698;28;20048;-55
2023/05/31 10:41:24;;;;;;;9.63;6.13;;;16.50;99.90;;;;;;5033939;28;20467;-58
2023/05/31 10:43:52;;;;;;;11.73;6.13;;;16.60;99.90;;;;;;5033771;28;20485;-57
2023/05/31 10:46:20;;;;;;;9.40;6.40;;;16.60;99.90;;;;;;5033724;28;20041;-59
2023/05/31 10:48:47;;;;;;;10.10;6.20;;;16.70;99.90;;;;;;5033740;28;20084;-60
2023/05/31 10:51:13;;;;;;;9.45;5.82;;;16.70;99.90;;;;;;5033487;28;20037;-58
2023/05/31 10:53:40;;;;;;;8.38;5.90;;;16.50;99.90;;;;;;5033537;28;20041;-58
2023/05/31 10:56:09;;;;;;;8.88;5.75;;;16.60;99.90;;;;;;5033472;28;20060;-53
2023/05/31 10:58:38;;;;;;;10.77;6.10;;;16.60;99.90;;;;;;5033358;28;20191;-57
2023/05/31 11:01:05;;;;;;;10.98;6.32;;;16.70;99.90;;;;;;5033194;28;20045;-55
2023/05/31 11:03:32;;;;;;;12.48;6.70;;;16.80;99.90;;;;;;5033446;28;20044;-55
2023/05/31 11:05:59;;;;;;;9.30;6.15;;;16.90;99.90;;;;;;5038506;28;20053;-57
2023/05/31 11:08:26;;;;;;;9.85;6.40;;;16.80;99.90;;;;;;5033461;28;20065;-59
2023/05/31 11:10:53;;;;;;;10.95;6.63;;;16.60;99.90;;;;;;5032341;28;20045;-55
2023/05/31 11:13:20;;;;;;;9.57;6.30;;;16.50;99.90;;;;;;5033141;28;20033;-57
2023/05/31 11:15:49;;;;;;;9.70;6.90;;;16.40;99.90;;;;;;5033032;28;20037;-58
2023/05/31 11:18:16;;;;;;;10.02;6.40;;;16.60;99.90;;;;;;5029871;28;20041;-58
2023/05/31 11:20:43;;;;;;;12.38;6.57;;;16.70;99.90;;;;;;5033047;28;20053;-56
2023/05/31 11:23:10;;;;;;;9.77;6.18;;;16.70;99.90;;;;;;5031568;28;20127;-55
2023/05/31 11:25:36;;;;;;;8.48;5.85;;;16.80;99.90;;;;;;5036540;28;20045;-56
2023/05/31 11:28:03;;;;;;;9.57;6.32;;;16.80;99.90;;;;;;5032978;28;20091;-55
2023/05/31 11:30:30;;;;;;;8.55;5.35;;;16.70;99.90;;;;;;5033999;28;20041;-56
2023/05/31 11:32:57;;;;;;;11.25;6.03;;;16.80;99.90;;;;;;5033012;28;20042;-57
2023/05/31 11:35:24;;;;;;;10.88;5.95;;;16.90;99.90;;;;;;5026721;28;20447;-58
2023/05/31 11:37:51;;;;;;;8.52;5.90;;;17.00;99.90;;;;;;5038833;28;20404;-57
2023/05/31 11:40:18;;;;;;;7.63;5.32;;;17.20;99.90;;;;;;5032842;28;20063;-58
2023/05/31 11:42:45;;;;;;;6.57;5.15;;;17.40;99.90;;;;;;5036432;28;20049;-55
2023/05/31 11:45:11;;;;;;;8.10;5.38;;;17.40;99.40;;;;;;5032952;28;20409;-58
2023/05/31 11:47:38;;;;;;;7.90;5.15;;;17.50;99.20;;;;;;5031562;28;20069;-58
2023/05/31 11:50:05;;;;;;;8.40;4.90;;;17.60;99.20;;;;;;5035652;28;20049;-54
2023/05/31 11:52:32;;;;;;;8.13;5.13;;;17.60;99.20;;;;;;5032619;28;20079;-59
2023/05/31 11:54:59;;;;;;;6.43;4.75;;;17.80;99.40;;;;;;5034777;28;20099;-56
2023/05/31 11:57:26;;;;;;;10.45;5.32;;;17.90;98.90;;;;;;5032716;28;20489;-56
2023/05/31 11:59:53;;;;;;;9.25;4.97;;;18.10;98.80;;;;;;5033246;28;20030;-58
2023/05/31 12:02:19;;;;;;;6.80;4.47;;;18.20;98.50;;;;;;5032540;28;20049;-57
2023/05/31 12:04:46;;;;;;;6.85;4.55;;;18.20;98.40;;;;;;5032321;28;20050;-53
2023/05/31 12:07:13;;;;;;;13.63;5.30;;;18.30;98.70;;;;;;5032721;28;20045;-55
2023/05/31 12:09:40;;;;;;;9.73;5.18;;;18.30;97.80;;;;;;5038846;28;20045;-57
2023/05/31 12:12:07;;;;;;;7.05;4.65;;;18.30;98.20;;;;;;5032799;28;20041;-59
2023/05/31 12:14:34;;;;;;;7.82;5.55;;;18.20;97.90;;;;;;5035601;28;20048;-51
2023/05/31 12:17:02;;;;;;;8.82;5.05;;;18.30;98.00;;;;;;5035152;28;20125;-59
2023/05/31 12:19:29;;;;;;;7.72;5.07;;;18.40;97.90;;;;;;5032657;28;20117;-59
2023/05/31 12:21:56;;;;;;;6.53;4.43;;;18.40;97.90;;;;;;5034687;28;20115;-56
2023/05/31 12:24:23;;;;;;;8.55;5.30;;;18.50;98.60;;;;;;5036848;28;20457;-54
2023/05/31 12:26:49;;;;;;;8.50;5.10;;;18.60;97.90;;;;;;5040177;28;20033;-55
2023/05/31 12:29:16;;;;;;;9.05;4.90;;;18.50;97.90;;;;;;5036692;28;20041;-56
2023/05/31 12:31:43;;;;;;;10.23;5.00;;;18.50;98.20;;;;;;5036549;28;20034;-55
2023/05/31 12:34:10;;;;;;;9.65;4.95;;;18.60;98.10;;;;;;5036413;28;20049;-57
2023/05/31 12:36:38;;;;;;;9.32;4.95;;;18.60;97.80;;;;;;5036366;28;20038;-55
2023/05/31 12:39:04;;;;;;;7.80;4.50;;;18.70;97.90;;;;;;5037255;28;20049;-54
2023/05/31 12:41:31;;;;;;;9.25;5.15;;;18.70;98.00;;;;;;5039828;28;20255;-54
2023/05/31 12:43:58;;;;;;;8.55;4.55;;;18.60;97.80;;;;;;5036255;28;20038;-54
2023/05/31 12:46:25;;;;;;;8.07;4.47;;;18.70;98.00;;;;;;5038840;28;20041;-58
2023/05/31 12:48:52;;;;;;;8.30;4.28;;;18.80;97.70;;;;;;5036401;28;20449;-52